Time;durP1;ratioP1;P1;durP2;ratioP2;P2;SDS_P1;SDS_P2;PMS_P1;PMS_P2;Temp;Humidity;BMP_temperature;BMP_pressure;BME280_temperature;BME280_humidity;BME280_pressure;Samples;Min_cycle;Max_cycle;Signal;HPM_P1;HPM_P2
2023/08/30 00:02:09;;;;;;;5.83;5.33;;;12.90;1.00;;;;;;5058481;28;20753;-82
2023/08/30 00:04:35;;;;;;;6.03;5.43;;;12.90;1.00;;;;;;5061324;28;20472;-82
2023/08/30 00:07:00;;;;;;;5.57;5.10;;;12.90;1.00;;;;;;5065564;28;20788;-83
2023/08/30 00:09:26;;;;;;;5.80;5.40;;;12.90;1.00;;;;;;5040874;28;20503;-83
2023/08/30 00:11:51;;;;;;;6.87;5.87;;;12.80;1.00;;;;;;5060402;28;20454;-82
2023/08/30 00:14:17;;;;;;;5.40;5.00;;;12.80;1.00;;;;;;5041233;28;20493;-82
2023/08/30 00:16:42;;;;;;;5.80;5.23;;;12.80;1.00;;;;;;5064899;28;20386;-82
2023/08/30 00:19:08;;;;;;;6.10;5.70;;;12.80;1.00;;;;;;5054636;28;20901;-82
2023/08/30 00:21:34;;;;;;;5.60;4.70;;;12.70;1.00;;;;;;5060310;28;20476;-82
2023/08/30 00:24:00;;;;;;;5.43;5.03;;;12.70;1.00;;;;;;5051618;28;20400;-82
2023/08/30 00:26:25;;;;;;;4.80;4.40;;;12.70;1.00;;;;;;5065036;28;20489;-82
2023/08/30 00:28:51;;;;;;;6.45;5.22;;;12.60;1.00;;;;;;5045211;28;20467;-82
2023/08/30 00:31:16;;;;;;;5.00;4.60;;;12.60;1.00;;;;;;5063658;28;20430;-82
2023/08/30 00:33:42;;;;;;;5.22;4.82;;;12.50;1.00;;;;;;5060727;28;20402;-82
2023/08/30 00:36:07;;;;;;;6.25;5.15;;;12.50;1.00;;;;;;5057385;28;20393;-81
2023/08/30 00:38:33;;;;;;;6.30;5.70;;;12.40;1.00;;;;;;5066696;28;20427;-78
2023/08/30 00:40:59;;;;;;;5.07;4.60;;;12.50;1.00;;;;;;5072229;28;20856;-78
2023/08/30 00:43:25;;;;;;;6.20;5.63;;;12.40;1.00;;;;;;5049755;28;20394;-82
2023/08/30 00:45:50;;;;;;;5.40;5.00;;;12.40;1.00;;;;;;5057689;28;20429;-83
2023/08/30 00:48:19;;;;;;;6.10;5.50;;;12.40;1.00;;;;;;5053414;28;20925;-83
2023/08/30 00:50:45;;;;;;;5.75;5.25;;;12.30;1.00;;;;;;5065530;28;20466;-83
2023/08/30 00:53:11;;;;;;;6.40;5.80;;;12.30;1.00;;;;;;5054997;28;20783;-84
2023/08/30 00:55:38;;;;;;;5.78;5.25;;;12.30;1.00;;;;;;5067248;28;20395;-83
2023/08/30 00:58:04;;;;;;;6.28;5.78;;;12.30;1.00;;;;;;5054926;28;20421;-83
2023/08/30 01:00:30;;;;;;;5.90;5.50;;;12.30;1.00;;;;;;5064176;28;20510;-82
2023/08/30 01:02:57;;;;;;;5.82;5.32;;;12.30;1.00;;;;;;5051413;28;20388;-82
2023/08/30 01:05:22;;;;;;;5.78;5.38;;;12.30;1.00;;;;;;5056703;28;20482;-82
2023/08/30 01:07:52;;;;;;;4.93;4.63;;;12.30;1.00;;;;;;5064616;28;20429;-82
2023/08/30 01:10:21;;;;;;;5.90;5.40;;;12.30;1.00;;;;;;5074236;28;20406;-82
2023/08/30 01:12:50;;;;;;;5.80;5.30;;;12.20;1.00;;;;;;5051559;28;20390;-82
2023/08/30 01:15:19;;;;;;;6.30;5.70;;;12.20;1.00;;;;;;5064934;28;20374;-82
2023/08/30 01:17:51;;;;;;;5.82;5.30;;;12.30;1.00;;;;;;5074663;28;20388;-82
2023/08/30 01:20:19;;;;;;;5.70;5.20;;;12.30;1.00;;;;;;5069737;28;20694;-82
2023/08/30 01:23:09;;;;;;;6.13;5.55;;;12.30;1.00;;;;;;5082401;28;20796;-82
2023/08/30 01:25:59;;;;;;;6.30;5.80;;;12.40;1.00;;;;;;5070388;28;20399;-82
2023/08/30 01:28:28;;;;;;;5.40;4.90;;;12.20;1.00;;;;;;5047624;28;20422;-83
2023/08/30 01:30:55;;;;;;;5.65;5.15;;;12.20;1.00;;;;;;5067144;28;20679;-83
2023/08/30 01:33:21;;;;;;;6.07;5.47;;;11.80;1.00;;;;;;5068452;28;20451;-81
2023/08/30 01:35:47;;;;;;;5.90;5.50;;;12.00;1.00;;;;;;5071412;28;20777;-84
2023/08/30 01:38:14;;;;;;;6.20;5.60;;;12.10;1.00;;;;;;5051500;28;20397;-84
2023/08/30 01:40:42;;;;;;;6.40;5.90;;;12.10;1.00;;;;;;5052329;28;20814;-84
2023/08/30 01:43:10;;;;;;;5.95;5.45;;;12.10;1.00;;;;;;5052646;28;20393;-84
2023/08/30 01:45:40;;;;;;;5.10;4.70;;;12.10;1.00;;;;;;5050822;28;20447;-84
2023/08/30 01:48:09;;;;;;;6.13;5.53;;;12.00;1.00;;;;;;5051029;28;20393;-84
2023/08/30 01:50:35;;;;;;;5.82;5.22;;;11.90;1.00;;;;;;5050450;28;20897;-84
2023/08/30 01:53:02;;;;;;;5.70;5.22;;;12.10;1.00;;;;;;5051528;28;20400;-84
2023/08/30 01:55:29;;;;;;;5.65;5.25;;;11.90;1.00;;;;;;5050968;28;20389;-84
2023/08/30 01:57:55;;;;;;;5.50;5.00;;;11.90;1.00;;;;;;5050960;28;20390;-84
2023/08/30 02:00:20;;;;;;;5.93;5.20;;;12.00;1.00;;;;;;5034775;28;20387;-84
2023/08/30 02:02:47;;;;;;;6.20;5.70;;;11.90;1.00;;;;;;5031044;28;20403;-84
2023/08/30 02:05:13;;;;;;;5.53;5.03;;;11.90;1.00;;;;;;5031515;28;20765;-83
2023/08/30 02:08:06;;;;;;;6.40;5.37;;;11.90;1.00;;;;;;5105347;22;20482;-88
2023/08/30 02:10:35;;;;;;;7.43;5.60;;;11.90;1.00;;;;;;5042453;28;20777;-87
2023/08/30 02:13:03;;;;;;;6.40;5.90;;;11.70;1.00;;;;;;5051816;28;20389;-87
2023/08/30 02:15:31;;;;;;;5.60;5.10;;;11.90;1.00;;;;;;5052533;28;20812;-87
2023/08/30 02:17:57;;;;;;;5.20;4.70;;;11.80;1.00;;;;;;5047652;28;20388;-87
2023/08/30 02:20:23;;;;;;;5.60;5.10;;;11.70;1.00;;;;;;5031795;28;20470;-87
2023/08/30 02:22:49;;;;;;;5.95;5.55;;;11.80;1.00;;;;;;5051602;28;20420;-88
2023/08/30 02:25:15;;;;;;;7.80;5.18;;;11.90;1.00;;;;;;5059562;28;20399;-88
2023/08/30 02:27:40;;;;;;;5.93;5.30;;;11.60;1.00;;;;;;5053178;28;20397;-87
2023/08/30 02:30:07;;;;;;;6.13;5.63;;;11.70;1.00;;;;;;5050891;28;20530;-87
2023/08/30 02:32:33;;;;;;;6.00;5.50;;;11.70;1.00;;;;;;5052160;28;20389;-88
2023/08/30 02:34:59;;;;;;;6.80;6.10;;;11.80;1.00;;;;;;5050609;28;20624;-87
2023/08/30 02:37:24;;;;;;;5.80;5.40;;;11.80;1.00;;;;;;5051670;28;20397;-87
2023/08/30 02:39:50;;;;;;;7.30;5.63;;;11.70;1.00;;;;;;5052322;28;20464;-87
2023/08/30 02:42:16;;;;;;;5.70;5.20;;;11.80;1.00;;;;;;5051280;28;20480;-88
2023/08/30 02:44:42;;;;;;;5.67;5.27;;;11.50;1.00;;;;;;5051483;28;20416;-87
2023/08/30 02:47:07;;;;;;;6.32;5.82;;;11.60;1.00;;;;;;5051939;28;20398;-88
2023/08/30 02:49:33;;;;;;;5.60;5.15;;;11.70;1.00;;;;;;5068914;28;20408;-88
2023/08/30 02:51:58;;;;;;;5.63;5.07;;;11.70;1.00;;;;;;5076738;28;20393;-89
2023/08/30 02:54:24;;;;;;;5.97;5.40;;;11.60;1.00;;;;;;5075458;28;20472;-89
2023/08/30 02:56:49;;;;;;;5.60;5.20;;;11.50;1.00;;;;;;5067387;28;20425;-88
2023/08/30 02:59:15;;;;;;;5.90;5.50;;;11.70;1.00;;;;;;5050707;28;20451;-88
2023/08/30 03:01:41;;;;;;;7.22;5.38;;;11.50;1.00;;;;;;5050840;28;20417;-88
2023/08/30 03:04:07;;;;;;;5.87;5.37;;;11.60;1.00;;;;;;5050932;28;20939;-87
2023/08/30 03:06:33;;;;;;;5.47;5.07;;;11.40;1.00;;;;;;5048156;28;20411;-88
2023/08/30 03:08:59;;;;;;;5.53;5.03;;;11.50;1.00;;;;;;5050467;28;20520;-88
2023/08/30 03:11:25;;;;;;;5.60;5.10;;;11.40;1.00;;;;;;5052359;28;20424;-87
2023/08/30 03:13:50;;;;;;;6.30;5.70;;;11.50;1.00;;;;;;5051958;28;20624;-87
2023/08/30 03:16:17;;;;;;;5.80;5.35;;;11.60;1.00;;;;;;5052003;28;20398;-87
2023/08/30 03:18:43;;;;;;;5.70;5.20;;;11.40;1.00;;;;;;5050505;28;20885;-88
2023/08/30 03:21:09;;;;;;;6.45;5.00;;;11.40;1.00;;;;;;5050239;28;20424;-88
2023/08/30 03:23:36;;;;;;;5.90;5.40;;;11.50;1.00;;;;;;5051545;28;20401;-87
2023/08/30 03:26:12;;;;;;;7.47;5.10;;;11.50;1.00;;;;;;5050018;28;20401;-88
2023/08/30 03:28:39;;;;;;;5.20;4.70;;;11.50;1.00;;;;;;5051262;28;20439;-87
2023/08/30 03:31:21;;;;;;;5.28;4.85;;;11.40;1.00;;;;;;5051348;28;20450;-87
2023/08/30 03:33:48;;;;;;;5.60;5.10;;;11.40;1.00;;;;;;5052180;28;20397;-87
2023/08/30 03:36:17;;;;;;;5.50;5.10;;;11.50;1.00;;;;;;5052286;28;20409;-87
2023/08/30 03:38:44;;;;;;;5.32;4.93;;;11.50;1.00;;;;;;5067894;28;20381;-88
2023/08/30 03:41:11;;;;;;;5.30;4.90;;;11.30;1.00;;;;;;5055394;28;20916;-88
2023/08/30 03:43:36;;;;;;;5.78;5.28;;;11.30;1.00;;;;;;5053822;28;20393;-87
2023/08/30 03:46:05;;;;;;;6.00;5.40;;;11.30;1.00;;;;;;5052326;28;20427;-87
2023/08/30 03:48:31;;;;;;;5.83;5.30;;;10.40;1.00;;;;;;5051561;28;20515;-87
2023/08/30 03:50:57;;;;;;;5.70;5.20;;;11.30;1.00;;;;;;5049657;28;20427;-87
2023/08/30 03:53:23;;;;;;;5.95;5.35;;;12.00;1.00;;;;;;5050329;28;20468;-87
2023/08/30 03:55:49;;;;;;;6.05;5.50;;;10.70;1.00;;;;;;5051247;28;20382;-87
2023/08/30 03:58:15;;;;;;;5.70;5.20;;;11.30;1.00;;;;;;5049951;28;20508;-87
2023/08/30 04:00:41;;;;;;;5.63;5.22;;;11.30;1.00;;;;;;5062997;28;20370;-87
2023/08/30 04:03:11;;;;;;;5.80;5.20;;;11.30;1.00;;;;;;5077207;28;20420;-88
2023/08/30 04:05:37;;;;;;;6.00;5.50;;;11.30;1.00;;;;;;5077050;28;20401;-90
2023/08/30 04:08:04;;;;;;;6.40;5.80;;;11.30;1.00;;;;;;5060911;28;20515;-88
2023/08/30 04:10:33;;;;;;;6.53;5.13;;;11.20;1.00;;;;;;5050290;28;20943;-88
2023/08/30 04:12:59;;;;;;;5.40;4.90;;;13.40;1.00;;;;;;5050095;28;20401;-88
2023/08/30 04:15:24;;;;;;;6.85;5.40;;;11.10;1.00;;;;;;5050118;28;20385;-89
2023/08/30 04:17:50;;;;;;;5.47;5.07;;;11.10;1.00;;;;;;5051841;28;20421;-88
2023/08/30 04:20:16;;;;;;;5.50;5.07;;;11.20;1.00;;;;;;5050257;28;21108;-88
2023/08/30 04:22:41;;;;;;;8.20;5.40;;;11.30;1.00;;;;;;5051588;28;20951;-89
2023/08/30 04:25:09;;;;;;;5.10;4.70;;;11.10;1.00;;;;;;5050299;28;20912;-88
2023/08/30 04:27:34;;;;;;;5.90;5.40;;;11.30;1.00;;;;;;5050014;28;20450;-88
2023/08/30 04:30:00;;;;;;;5.37;4.97;;;11.10;1.00;;;;;;5049967;28;20385;-88
2023/08/30 04:32:25;;;;;;;6.10;5.50;;;11.20;1.00;;;;;;5049998;28;20432;-88
2023/08/30 04:34:51;;;;;;;5.25;4.82;;;11.20;1.00;;;;;;5050276;28;20927;-87
2023/08/30 04:37:16;;;;;;;5.03;4.53;;;11.40;1.00;;;;;;5049823;28;20373;-88
2023/08/30 04:39:42;;;;;;;5.10;4.70;;;11.20;1.00;;;;;;5049981;28;20385;-88
2023/08/30 04:42:08;;;;;;;5.30;4.80;;;11.50;1.00;;;;;;5050503;28;20515;-88
2023/08/30 04:44:33;;;;;;;5.90;5.30;;;11.40;1.00;;;;;;5049840;28;20393;-87
2023/08/30 04:46:59;;;;;;;5.53;5.13;;;11.30;1.00;;;;;;5050975;28;20408;-88
2023/08/30 04:49:25;;;;;;;5.23;4.83;;;11.60;1.00;;;;;;5050531;28;20420;-88
2023/08/30 04:51:51;;;;;;;5.80;5.20;;;11.30;1.00;;;;;;5051056;28;20519;-89
2023/08/30 04:54:16;;;;;;;5.70;5.20;;;11.10;1.00;;;;;;5053458;28;20389;-89
2023/08/30 04:56:42;;;;;;;5.33;4.93;;;10.90;1.00;;;;;;5053473;28;20401;-89
2023/08/30 04:59:07;;;;;;;5.90;5.40;;;11.30;1.00;;;;;;5054698;28;20881;-89
2023/08/30 05:01:33;;;;;;;7.10;6.40;;;11.30;1.00;;;;;;5053601;28;20396;-89
2023/08/30 05:03:58;;;;;;;7.00;6.25;;;11.10;1.00;;;;;;5053522;28;20394;-89
2023/08/30 05:06:24;;;;;;;7.00;5.90;;;11.20;1.00;;;;;;5069749;28;20417;-90
2023/08/30 05:08:50;;;;;;;5.27;4.87;;;11.30;1.00;;;;;;5070463;28;20476;-88
2023/08/30 05:11:16;;;;;;;6.07;5.47;;;11.40;1.00;;;;;;5060226;28;20385;-89
2023/08/30 05:13:41;;;;;;;5.60;5.03;;;11.50;1.00;;;;;;5095756;28;20398;-89
2023/08/30 05:16:07;;;;;;;5.27;4.77;;;11.40;1.00;;;;;;5083191;28;20497;-87
2023/08/30 05:18:32;;;;;;;5.10;4.70;;;11.40;1.00;;;;;;5053853;28;20451;-88
2023/08/30 05:20:58;;;;;;;5.50;5.00;;;11.40;1.00;;;;;;5054599;28;20387;-88
2023/08/30 05:23:23;;;;;;;5.20;4.80;;;10.60;1.00;;;;;;5054466;28;20392;-89
2023/08/30 05:25:49;;;;;;;5.43;4.93;;;11.40;1.00;;;;;;5052903;28;20943;-87
2023/08/30 05:28:14;;;;;;;4.88;4.47;;;11.60;1.00;;;;;;5054248;28;20389;-88
2023/08/30 05:30:43;;;;;;;5.33;4.83;;;11.60;1.00;;;;;;5054017;28;20916;-88
2023/08/30 05:33:09;;;;;;;5.70;5.10;;;11.80;1.00;;;;;;5052819;28;20389;-88
2023/08/30 05:35:34;;;;;;;4.47;4.03;;;11.80;1.00;;;;;;5054332;28;20400;-88
2023/08/30 05:38:00;;;;;;;4.90;4.50;;;11.80;1.00;;;;;;5051894;28;20393;-88
2023/08/30 05:40:26;;;;;;;4.97;4.57;;;11.70;1.00;;;;;;5051392;28;20397;-88
2023/08/30 05:42:51;;;;;;;5.63;5.13;;;11.60;1.00;;;;;;5052392;28;20404;-88
2023/08/30 05:45:17;;;;;;;4.90;4.30;;;11.90;1.00;;;;;;5054100;28;20387;-87
2023/08/30 05:47:42;;;;;;;5.30;4.47;;;11.70;1.00;;;;;;5052431;28;20406;-87
2023/08/30 05:50:08;;;;;;;4.97;4.57;;;11.90;1.00;;;;;;5052177;28;20816;-88
2023/08/30 05:52:34;;;;;;;5.38;4.97;;;12.00;1.00;;;;;;5052775;28;20427;-88
2023/08/30 05:54:59;;;;;;;5.35;4.95;;;12.00;1.00;;;;;;5053434;28;20909;-88
2023/08/30 05:57:26;;;;;;;5.10;4.70;;;12.10;1.00;;;;;;5052280;28;20741;-88
2023/08/30 05:59:52;;;;;;;4.90;4.50;;;12.20;1.00;;;;;;5051978;28;20425;-88
2023/08/30 06:02:17;;;;;;;5.80;4.67;;;12.20;1.00;;;;;;5052348;28;20421;-87
2023/08/30 06:04:43;;;;;;;4.90;4.50;;;12.30;1.00;;;;;;5053907;28;20927;-87
2023/08/30 06:07:08;;;;;;;5.05;4.57;;;12.40;1.00;;;;;;5053418;28;20459;-88
2023/08/30 06:09:34;;;;;;;4.87;4.53;;;12.50;1.00;;;;;;5053564;28;20406;-86
2023/08/30 06:12:00;;;;;;;4.10;3.80;;;12.60;1.00;;;;;;5048240;28;20877;-87
2023/08/30 06:14:26;;;;;;;4.60;4.20;;;12.60;1.00;;;;;;5054541;28;20385;-87
2023/08/30 06:16:52;;;;;;;4.82;4.43;;;12.60;1.00;;;;;;5054273;28;20446;-87
2023/08/30 06:19:17;;;;;;;4.50;4.00;;;12.60;1.00;;;;;;5052396;28;20464;-87
2023/08/30 06:21:43;;;;;;;4.37;3.97;;;12.60;1.00;;;;;;5052401;28;20398;-88
2023/08/30 06:24:09;;;;;;;4.40;4.00;;;12.20;1.00;;;;;;5052872;28;20390;-87
2023/08/30 06:26:34;;;;;;;4.20;3.77;;;12.80;1.00;;;;;;5057646;28;20401;-87
2023/08/30 06:29:00;;;;;;;4.25;3.85;;;12.80;1.00;;;;;;5056884;28;20443;-87
2023/08/30 06:31:26;;;;;;;4.50;4.10;;;12.90;1.00;;;;;;5054121;28;20384;-87
2023/08/30 06:33:51;;;;;;;3.95;3.63;;;12.90;1.00;;;;;;5060570;28;20369;-87
2023/08/30 06:36:18;;;;;;;4.10;3.80;;;12.90;1.00;;;;;;5076977;28;20378;-89
2023/08/30 06:38:43;;;;;;;4.55;4.15;;;13.00;1.00;;;;;;5076126;28;20432;-89
2023/08/30 06:41:09;;;;;;;4.30;3.92;;;13.00;1.00;;;;;;5069190;28;20393;-88
2023/08/30 06:43:35;;;;;;;5.20;3.90;;;13.00;1.00;;;;;;5054925;28;20466;-87
2023/08/30 06:46:00;;;;;;;4.07;3.67;;;13.00;1.00;;;;;;5052641;28;20414;-87
2023/08/30 06:48:26;;;;;;;5.93;3.90;;;13.40;1.00;;;;;;5052398;28;20912;-87
2023/08/30 06:50:51;;;;;;;4.32;4.03;;;13.10;1.00;;;;;;5052968;28;20385;-86
2023/08/30 06:53:17;;;;;;;4.67;4.27;;;13.10;1.00;;;;;;5051677;28;20380;-87
2023/08/30 06:55:42;;;;;;;4.50;4.20;;;13.20;1.00;;;;;;5052088;28;20777;-87
2023/08/30 06:58:08;;;;;;;4.50;4.10;;;13.30;1.00;;;;;;5051463;28;20413;-87
2023/08/30 07:00:34;;;;;;;4.10;3.80;;;13.30;1.00;;;;;;5051325;28;20968;-87
2023/08/30 07:02:59;;;;;;;6.40;4.47;;;13.70;1.00;;;;;;5051728;28;20390;-87
2023/08/30 07:05:25;;;;;;;4.90;4.50;;;13.40;1.00;;;;;;5051434;28;20390;-87
2023/08/30 07:07:50;;;;;;;4.68;4.28;;;12.70;1.00;;;;;;5051732;28;20412;-87
2023/08/30 07:10:16;;;;;;;6.00;4.50;;;13.60;1.00;;;;;;5067166;28;20477;-87
2023/08/30 07:12:42;;;;;;;4.60;4.20;;;13.60;1.00;;;;;;5076035;28;20416;-88
2023/08/30 07:15:08;;;;;;;4.10;3.80;;;13.70;1.00;;;;;;5077582;28;20423;-87
2023/08/30 07:17:33;;;;;;;4.00;3.70;;;13.70;1.00;;;;;;5077221;28;20398;-88
2023/08/30 07:19:59;;;;;;;9.80;3.63;;;13.80;1.00;;;;;;5076298;28;20469;-89
2023/08/30 07:22:25;;;;;;;5.45;3.90;;;13.90;1.00;;;;;;5065511;28;20393;-87
2023/08/30 07:24:51;;;;;;;3.83;3.53;;;13.90;1.00;;;;;;5052587;28;20863;-87
2023/08/30 07:27:16;;;;;;;4.30;3.90;;;14.00;1.00;;;;;;5052140;28;20452;-87
2023/08/30 07:29:43;;;;;;;4.55;3.45;;;14.10;1.00;;;;;;5051789;28;20412;-87
2023/08/30 07:32:09;;;;;;;3.45;3.15;;;14.20;1.00;;;;;;5051921;28;20381;-87
2023/08/30 07:34:35;;;;;;;3.63;3.40;;;14.30;1.00;;;;;;5052145;28;20469;-87
2023/08/30 07:37:01;;;;;;;4.00;3.20;;;14.40;1.00;;;;;;5050082;28;20389;-88
2023/08/30 07:39:26;;;;;;;3.60;3.30;;;14.50;1.00;;;;;;5050417;28;20404;-87
2023/08/30 07:41:52;;;;;;;3.50;3.20;;;14.50;1.00;;;;;;5050947;28;20381;-87
2023/08/30 07:44:19;;;;;;;3.40;3.10;;;14.50;1.00;;;;;;5050937;28;20409;-87
2023/08/30 07:46:45;;;;;;;3.83;3.42;;;14.70;1.00;;;;;;5056648;28;20463;-86
2023/08/30 07:49:10;;;;;;;2.80;2.60;;;14.80;1.00;;;;;;5076595;28;20401;-87
2023/08/30 07:51:36;;;;;;;3.10;2.80;;;14.80;1.00;;;;;;5093170;28;20401;-87
2023/08/30 07:54:01;;;;;;;2.40;2.30;;;15.00;1.00;;;;;;5093027;28;20436;-87
2023/08/30 07:56:28;;;;;;;2.70;2.50;;;14.60;1.00;;;;;;5089262;28;20553;-88
2023/08/30 07:58:54;;;;;;;3.10;2.90;;;15.40;1.00;;;;;;5056886;28;20382;-91
2023/08/30 08:01:20;;;;;;;3.40;3.10;;;15.30;1.00;;;;;;5049418;28;20403;-87
2023/08/30 08:03:45;;;;;;;3.00;2.60;;;15.40;1.00;;;;;;5032276;28;20400;-86
2023/08/30 08:06:11;;;;;;;3.10;2.87;;;15.50;1.00;;;;;;5056304;22;20414;-83
2023/08/30 08:08:36;;;;;;;2.70;2.50;;;16.20;1.00;;;;;;5037197;28;20393;-83
2023/08/30 08:11:03;;;;;;;2.90;2.70;;;15.70;1.00;;;;;;5003339;28;20380;-86
2023/08/30 08:13:29;;;;;;;3.00;2.80;;;15.70;1.00;;;;;;5002863;28;20789;-83
2023/08/30 08:15:56;;;;;;;2.92;2.67;;;15.80;1.00;;;;;;5021261;28;20385;-83
2023/08/30 08:18:22;;;;;;;2.80;2.60;;;15.80;1.00;;;;;;5030796;28;20691;-84
2023/08/30 08:20:47;;;;;;;3.10;2.60;;;15.80;1.00;;;;;;5021787;28;20444;-84
2023/08/30 08:23:13;;;;;;;2.78;2.47;;;15.90;1.00;;;;;;5040297;28;20431;-84
2023/08/30 08:25:39;;;;;;;2.60;2.40;;;16.10;1.00;;;;;;5021269;28;20448;-84
2023/08/30 08:28:04;;;;;;;2.50;2.40;;;16.10;1.00;;;;;;5018406;28;20408;-84
2023/08/30 08:30:30;;;;;;;2.78;2.45;;;16.20;1.00;;;;;;5033522;28;20396;-84
2023/08/30 08:32:56;;;;;;;2.50;2.30;;;16.20;1.00;;;;;;5025292;28;20377;-84
2023/08/30 08:35:21;;;;;;;2.80;2.60;;;16.30;1.00;;;;;;5024207;28;20388;-84
2023/08/30 08:37:47;;;;;;;3.60;2.72;;;16.30;1.00;;;;;;5016618;28;20482;-84
2023/08/30 08:40:12;;;;;;;2.50;2.30;;;16.30;1.00;;;;;;5044806;28;20391;-84
2023/08/30 08:42:38;;;;;;;3.20;2.77;;;16.20;1.00;;;;;;5042982;28;20880;-84
2023/08/30 08:45:04;;;;;;;3.20;2.90;;;16.30;1.00;;;;;;5007977;28;20393;-84
2023/08/30 08:47:31;;;;;;;2.75;2.55;;;16.40;1.00;;;;;;5023922;28;20404;-84
2023/08/30 08:49:57;;;;;;;3.15;2.67;;;16.40;1.00;;;;;;5006040;28;20442;-84
2023/08/30 08:52:26;;;;;;;2.80;2.60;;;16.50;1.00;;;;;;5022357;28;20898;-84
2023/08/30 08:54:52;;;;;;;2.78;2.58;;;16.60;1.00;;;;;;5025586;28;20391;-84
2023/08/30 08:57:19;;;;;;;2.60;2.50;;;15.80;1.00;;;;;;5024499;28;20390;-84
2023/08/30 08:59:44;;;;;;;2.80;2.60;;;16.70;1.00;;;;;;5042565;28;20468;-84
2023/08/30 09:02:13;;;;;;;3.38;3.08;;;16.90;1.00;;;;;;5024220;28;20426;-84
2023/08/30 09:04:39;;;;;;;3.10;2.80;;;16.80;1.00;;;;;;5042372;28;20391;-84
2023/08/30 09:07:05;;;;;;;3.80;2.50;;;16.90;1.00;;;;;;5022594;28;20415;-84
2023/08/30 09:09:31;;;;;;;2.88;2.63;;;16.90;1.00;;;;;;5023424;28;20383;-84
2023/08/30 09:11:56;;;;;;;2.80;2.60;;;16.90;1.00;;;;;;5022262;28;20407;-84
2023/08/30 09:14:22;;;;;;;3.03;2.83;;;17.20;1.00;;;;;;5004620;28;20386;-85
2023/08/30 09:17:02;;;;;;;3.00;2.80;;;16.50;1.00;;;;;;5018208;28;20385;-86
2023/08/30 09:19:29;;;;;;;3.40;3.10;;;17.30;1.00;;;;;;5020513;28;20811;-85
2023/08/30 09:21:59;;;;;;;3.60;3.30;;;17.40;1.00;;;;;;5037327;28;20416;-84
2023/08/30 09:24:25;;;;;;;3.60;3.30;;;17.90;1.00;;;;;;5035154;28;20381;-84
2023/08/30 09:26:55;;;;;;;3.80;3.40;;;17.40;1.00;;;;;;5007690;28;20423;-85
2023/08/30 09:29:23;;;;;;;4.13;3.80;;;17.50;1.00;;;;;;5044401;28;20375;-84
2023/08/30 09:31:52;;;;;;;4.15;3.85;;;17.40;1.00;;;;;;5037810;28;20401;-83
2023/08/30 09:34:23;;;;;;;4.60;4.30;;;17.40;1.00;;;;;;5038687;28;20802;-82
2023/08/30 09:36:50;;;;;;;4.80;4.40;;;17.30;1.00;;;;;;5036090;28;20410;-84
2023/08/30 09:39:15;;;;;;;5.00;4.60;;;16.10;1.00;;;;;;5045062;28;20395;-85
2023/08/30 09:41:46;;;;;;;4.55;4.20;;;17.40;1.00;;;;;;5041979;28;20387;-85
2023/08/30 09:44:20;;;;;;;4.20;3.90;;;17.40;1.00;;;;;;5026661;28;20484;-85
2023/08/30 09:46:53;;;;;;;5.00;4.50;;;17.40;1.00;;;;;;5026260;28;20407;-85
2023/08/30 09:49:24;;;;;;;4.97;4.40;;;17.40;1.00;;;;;;5024298;28;20469;-85
2023/08/30 09:51:51;;;;;;;4.40;4.10;;;17.40;1.00;;;;;;5042508;28;20468;-84
2023/08/30 09:54:23;;;;;;;3.67;3.40;;;17.60;1.00;;;;;;5043315;28;20748;-85
2023/08/30 09:56:52;;;;;;;4.40;4.00;;;17.70;1.00;;;;;;5023110;28;20823;-84
2023/08/30 09:59:18;;;;;;;4.25;3.75;;;17.70;1.00;;;;;;5022746;28;20750;-84
2023/08/30 10:01:48;;;;;;;3.40;3.20;;;17.60;1.00;;;;;;5039890;28;20390;-85
2023/08/30 10:04:14;;;;;;;3.80;3.50;;;17.60;1.00;;;;;;5020686;28;20389;-85
2023/08/30 10:06:40;;;;;;;3.90;3.60;;;17.70;1.00;;;;;;5001925;28;20500;-85
2023/08/30 10:09:10;;;;;;;3.87;3.57;;;17.90;1.00;;;;;;5001917;28;20381;-85
2023/08/30 10:11:38;;;;;;;3.80;3.50;;;18.00;1.00;;;;;;5002789;28;20384;-85
2023/08/30 10:14:07;;;;;;;4.20;3.80;;;18.00;1.00;;;;;;5027742;28;20398;-84
2023/08/30 10:16:44;;;;;;;3.30;3.10;;;18.00;1.00;;;;;;5023080;28;20964;-85
2023/08/30 10:19:24;;;;;;;4.10;3.22;;;18.20;1.00;;;;;;5040122;28;20395;-85
2023/08/30 10:21:56;;;;;;;3.30;3.10;;;18.30;1.00;;;;;;5022495;28;20383;-85
2023/08/30 10:24:24;;;;;;;3.40;3.00;;;18.50;1.00;;;;;;5041197;28;20409;-84
2023/08/30 10:26:50;;;;;;;3.40;3.10;;;18.40;1.00;;;;;;5033900;28;20398;-84
2023/08/30 10:29:17;;;;;;;3.50;3.20;;;18.50;1.00;;;;;;5042514;28;20909;-83
2023/08/30 10:31:43;;;;;;;3.30;3.00;;;18.30;1.00;;;;;;5022398;28;20443;-85
2023/08/30 10:34:16;;;;;;;3.30;3.10;;;18.20;1.00;;;;;;5018076;28;20540;-84
2023/08/30 10:36:43;;;;;;;3.17;2.90;;;18.60;1.00;;;;;;5004640;28;20460;-85
2023/08/30 10:39:13;;;;;;;3.40;3.10;;;18.60;1.00;;;;;;5005969;28;20911;-83
2023/08/30 10:41:55;;;;;;;3.08;2.83;;;18.40;1.00;;;;;;5022482;28;20457;-84
2023/08/30 10:44:22;;;;;;;3.28;2.97;;;18.50;1.00;;;;;;5025403;28;20485;-85
2023/08/30 10:46:54;;;;;;;3.65;3.30;;;18.60;1.00;;;;;;5011815;28;20450;-85
2023/08/30 10:49:20;;;;;;;3.00;2.80;;;18.60;1.00;;;;;;5024416;28;20470;-85
2023/08/30 10:51:54;;;;;;;3.13;2.93;;;18.60;1.00;;;;;;5040714;28;20383;-84
2023/08/30 10:54:21;;;;;;;3.20;3.00;;;18.70;1.00;;;;;;5040260;28;20394;-85
2023/08/30 10:56:51;;;;;;;3.40;2.90;;;18.50;1.00;;;;;;5039807;28;20398;-85
2023/08/30 10:59:20;;;;;;;3.58;3.00;;;18.40;1.00;;;;;;5039123;28;20465;-84
2023/08/30 11:01:47;;;;;;;2.60;2.40;;;18.70;1.00;;;;;;5020749;28;20399;-85
2023/08/30 11:04:15;;;;;;;3.90;2.63;;;18.70;1.00;;;;;;5037686;28;20405;-85
2023/08/30 11:06:44;;;;;;;2.97;2.78;;;19.70;1.00;;;;;;5002207;28;20416;-84
2023/08/30 11:09:12;;;;;;;2.85;2.65;;;19.40;1.00;;;;;;4999775;28;20403;-85
2023/08/30 11:11:38;;;;;;;2.80;2.50;;;19.70;1.00;;;;;;5019630;28;20389;-85
2023/08/30 11:14:06;;;;;;;3.00;2.70;;;20.90;1.00;;;;;;5027239;28;20392;-84
2023/08/30 11:16:32;;;;;;;3.25;2.95;;;19.30;1.00;;;;;;5046393;28;20406;-85
2023/08/30 11:18:58;;;;;;;2.80;2.60;;;18.90;1.00;;;;;;5025809;28;20443;-85
2023/08/30 11:21:23;;;;;;;2.60;2.40;;;18.90;1.00;;;;;;5024515;28;20426;-85
2023/08/30 11:23:49;;;;;;;2.77;2.30;;;19.00;1.00;;;;;;5013456;28;20790;-85
2023/08/30 11:26:15;;;;;;;3.33;2.72;;;18.80;1.00;;;;;;5003890;28;20413;-84
2023/08/30 11:28:45;;;;;;;3.15;2.78;;;18.90;1.00;;;;;;4999914;28;20396;-84
2023/08/30 11:31:27;;;;;;;2.88;2.60;;;19.00;1.00;;;;;;4998593;28;20377;-84
2023/08/30 11:33:57;;;;;;;3.72;2.80;;;19.10;1.00;;;;;;5003877;28;20464;-83
2023/08/30 11:36:27;;;;;;;3.20;2.90;;;19.40;1.00;;;;;;5016523;28;20475;-83
2023/08/30 11:38:53;;;;;;;3.07;2.87;;;19.30;1.00;;;;;;5004361;28;20393;-84
2023/08/30 11:41:23;;;;;;;2.80;2.60;;;19.20;1.00;;;;;;5014508;28;20737;-84
2023/08/30 11:43:49;;;;;;;2.80;2.60;;;19.10;1.00;;;;;;5028323;28;20882;-84
2023/08/30 11:46:16;;;;;;;2.80;2.60;;;19.30;1.00;;;;;;5036266;28;20418;-84
2023/08/30 11:48:42;;;;;;;3.55;3.25;;;19.30;1.00;;;;;;5034911;28;20396;-85
2023/08/30 11:51:08;;;;;;;3.25;2.95;;;19.10;1.00;;;;;;5018233;28;20924;-84
2023/08/30 11:53:35;;;;;;;3.33;3.03;;;19.10;1.00;;;;;;5017747;28;20759;-84
2023/08/30 11:56:01;;;;;;;3.80;3.40;;;19.00;1.00;;;;;;5018209;28;20387;-82
2023/08/30 11:58:26;;;;;;;3.30;2.75;;;19.00;1.00;;;;;;5015476;28;20391;-86
2023/08/30 12:00:54;;;;;;;3.30;3.10;;;19.10;1.00;;;;;;5035726;28;20436;-84
2023/08/30 12:03:22;;;;;;;3.50;2.80;;;19.80;1.00;;;;;;5034530;28;20398;-84
2023/08/30 12:05:49;;;;;;;3.10;2.70;;;20.60;1.00;;;;;;5032779;28;20420;-84
2023/08/30 12:08:29;;;;;;;2.70;2.50;;;20.60;1.00;;;;;;4994533;28;20499;-84
2023/08/30 12:10:55;;;;;;;2.97;2.50;;;21.40;1.00;;;;;;4994986;28;20389;-84
2023/08/30 12:13:32;;;;;;;2.50;2.30;;;21.10;1.00;;;;;;4995239;28;20397;-85
2023/08/30 12:15:59;;;;;;;3.60;2.35;;;20.50;1.00;;;;;;5012978;28;20397;-85
2023/08/30 12:18:27;;;;;;;3.25;2.58;;;20.70;1.00;;;;;;4994574;28;20976;-85
2023/08/30 12:21:04;;;;;;;3.13;2.83;;;20.70;1.00;;;;;;5012096;28;20461;-84
2023/08/30 12:23:31;;;;;;;2.70;2.43;;;21.00;1.00;;;;;;5034586;28;20390;-85
2023/08/30 12:26:07;;;;;;;2.90;2.60;;;21.60;1.00;;;;;;5014181;28;20395;-86
2023/08/30 12:28:40;;;;;;;2.85;1.92;;;22.00;1.00;;;;;;5031223;28;20744;-85
2023/08/30 12:31:06;;;;;;;2.13;1.90;;;22.20;1.00;;;;;;5013489;28;20872;-85
2023/08/30 12:33:34;;;;;;;1.95;1.85;;;22.40;1.00;;;;;;5024024;28;20405;-85
2023/08/30 12:36:00;;;;;;;3.08;2.20;;;23.10;1.00;;;;;;4995459;28;20396;-84
2023/08/30 12:38:25;;;;;;;2.08;1.80;;;22.50;1.00;;;;;;5013039;28;20424;-84
2023/08/30 12:40:53;;;;;;;2.10;2.00;;;21.10;1.00;;;;;;5013443;28;20392;-84
2023/08/30 12:43:22;;;;;;;2.00;1.90;;;21.60;1.00;;;;;;5023281;28;20417;-84
2023/08/30 12:45:49;;;;;;;2.20;2.00;;;21.90;1.00;;;;;;5017440;28;20409;-84
2023/08/30 12:48:16;;;;;;;2.40;2.20;;;21.30;1.00;;;;;;5034288;28;20816;-85
2023/08/30 12:50:44;;;;;;;1.80;1.70;;;21.30;1.00;;;;;;5019473;28;20383;-86
2023/08/30 12:53:09;;;;;;;2.00;1.90;;;22.10;1.00;;;;;;5023439;28;20381;-85
2023/08/30 12:55:35;;;;;;;2.95;2.10;;;21.50;1.00;;;;;;5022682;28;20399;-84
2023/08/30 12:58:05;;;;;;;2.70;2.00;;;21.80;1.00;;;;;;5018042;28;20396;-85